Time;durP1;ratioP1;P1;durP2;ratioP2;P2;SDS_P1;SDS_P2;PMS_P1;PMS_P2;Temp;Humidity;BMP_temperature;BMP_pressure;BME280_temperature;BME280_humidity;BME280_pressure;Samples;Min_cycle;Max_cycle;Signal;HPM_P1;HPM_P2
2023/06/07 00:01:25;;;;;;;14.77;8.20;;;17.50;99.90;;;;;;5133673;28;20023;-68
2023/06/07 00:03:51;;;;;;;16.00;8.13;;;17.50;99.90;;;;;;5133858;28;20476;-68
2023/06/07 00:06:16;;;;;;;17.63;8.55;;;17.40;99.90;;;;;;5133659;28;20088;-68
2023/06/07 00:08:43;;;;;;;16.02;8.55;;;17.40;99.90;;;;;;5133544;28;20023;-68
2023/06/07 00:11:09;;;;;;;17.35;8.38;;;17.40;99.90;;;;;;5133542;28;20015;-68
2023/06/07 00:13:35;;;;;;;12.18;7.68;;;17.40;99.90;;;;;;5133896;27;20043;-68
2023/06/07 00:16:00;;;;;;;13.90;7.82;;;17.40;99.90;;;;;;5136768;27;20023;-68
2023/06/07 00:18:28;;;;;;;15.60;7.78;;;17.40;99.90;;;;;;5137400;27;20058;-68
2023/06/07 00:20:53;;;;;;;13.48;7.88;;;17.40;99.90;;;;;;5137248;27;20030;-68
2023/06/07 00:23:20;;;;;;;10.13;7.75;;;17.30;99.90;;;;;;5137328;27;20024;-68
2023/06/07 00:25:46;;;;;;;15.63;7.72;;;17.30;99.90;;;;;;5137316;27;20412;-68
2023/06/07 00:28:12;;;;;;;15.90;8.00;;;17.30;99.90;;;;;;5137076;27;20035;-68
2023/06/07 00:30:38;;;;;;;15.05;8.25;;;17.20;99.90;;;;;;5137070;27;20023;-68
2023/06/07 00:33:04;;;;;;;17.70;8.35;;;17.20;99.90;;;;;;5136925;27;20030;-68
2023/06/07 00:35:29;;;;;;;11.63;7.40;;;17.20;99.90;;;;;;5136896;27;20027;-68
2023/06/07 00:37:55;;;;;;;11.95;7.65;;;17.20;99.90;;;;;;5136904;27;20027;-69
2023/06/07 00:40:21;;;;;;;17.23;8.02;;;17.10;99.90;;;;;;5137059;27;20050;-68
2023/06/07 00:42:46;;;;;;;16.55;7.68;;;17.10;99.90;;;;;;5136888;27;20035;-68
2023/06/07 00:45:12;;;;;;;15.40;8.10;;;17.10;99.90;;;;;;5136797;27;20061;-68
2023/06/07 00:47:38;;;;;;;16.20;8.18;;;17.00;99.90;;;;;;5136775;27;20058;-68
2023/06/07 00:50:04;;;;;;;14.68;8.18;;;17.00;99.90;;;;;;5136846;27;20427;-68
2023/06/07 00:52:32;;;;;;;18.40;7.95;;;17.00;99.90;;;;;;5136830;27;20531;-68
2023/06/07 00:54:58;;;;;;;13.23;8.40;;;17.00;99.90;;;;;;5137003;27;20020;-68
2023/06/07 00:57:24;;;;;;;17.15;8.40;;;16.90;99.90;;;;;;5136773;27;20042;-68
2023/06/07 00:59:50;;;;;;;15.95;8.20;;;16.90;99.90;;;;;;5136762;27;20075;-68
2023/06/07 01:02:16;;;;;;;16.05;8.40;;;16.90;99.90;;;;;;5136674;27;20110;-68
2023/06/07 01:04:42;;;;;;;14.68;8.25;;;16.90;99.90;;;;;;5136597;27;20533;-68
2023/06/07 01:07:08;;;;;;;14.40;8.00;;;16.90;99.90;;;;;;5136277;27;20047;-68
2023/06/07 01:09:35;;;;;;;14.48;8.30;;;16.90;99.90;;;;;;5136423;27;20472;-68
2023/06/07 01:12:03;;;;;;;12.43;8.02;;;16.80;99.90;;;;;;5136412;27;20098;-68
2023/06/07 01:14:30;;;;;;;17.02;7.97;;;16.80;99.90;;;;;;5136581;27;20027;-68
2023/06/07 01:16:57;;;;;;;12.82;7.72;;;16.80;1.00;;;;;;5136355;27;20022;-68
2023/06/07 01:19:27;;;;;;;13.88;8.18;;;16.70;99.90;;;;;;5136132;27;20453;-68
2023/06/07 01:22:00;;;;;;;15.10;8.27;;;16.70;99.90;;;;;;5136221;27;20114;-68
2023/06/07 01:24:28;;;;;;;13.90;7.60;;;16.70;99.90;;;;;;5136448;27;20023;-68
2023/06/07 01:26:57;;;;;;;14.10;8.15;;;16.70;1.00;;;;;;5135781;27;20025;-68
2023/06/07 01:29:24;;;;;;;18.70;8.55;;;16.70;1.00;;;;;;5135941;27;20031;-68
2023/06/07 01:31:51;;;;;;;13.32;8.35;;;16.70;1.00;;;;;;5136039;27;20026;-68
2023/06/07 01:34:19;;;;;;;16.45;8.32;;;16.70;1.00;;;;;;5135858;27;20027;-68
2023/06/07 01:36:47;;;;;;;14.98;7.80;;;16.60;1.00;;;;;;5135961;27;20019;-68
2023/06/07 01:39:14;;;;;;;17.35;8.48;;;16.60;1.00;;;;;;5135785;27;20047;-68
2023/06/07 01:41:41;;;;;;;13.10;8.25;;;16.50;1.00;;;;;;5135933;27;20072;-68
2023/06/07 01:44:08;;;;;;;14.02;8.75;;;16.50;1.00;;;;;;5135538;27;20019;-68
2023/06/07 01:46:34;;;;;;;15.70;8.82;;;16.40;1.00;;;;;;5135622;27;20054;-68
2023/06/07 01:48:59;;;;;;;16.05;8.63;;;16.40;1.00;;;;;;5135482;27;20049;-68
2023/06/07 01:51:25;;;;;;;13.15;8.05;;;16.40;1.00;;;;;;5135676;27;20422;-68
2023/06/07 01:53:51;;;;;;;14.77;8.27;;;16.40;1.00;;;;;;5135396;27;20020;-68
2023/06/07 01:56:28;;;;;;;17.35;8.77;;;16.40;1.00;;;;;;5135145;27;20065;-68
2023/06/07 01:59:19;;;;;;;13.38;8.70;;;16.40;99.90;;;;;;5135519;27;20038;-68
2023/06/07 02:02:02;;;;;;;14.73;8.57;;;16.40;99.90;;;;;;5135344;27;20135;-68
2023/06/07 02:04:31;;;;;;;16.80;8.80;;;16.40;1.00;;;;;;5135449;27;20038;-68
2023/06/07 02:07:04;;;;;;;15.18;10.02;;;16.40;1.00;;;;;;5135067;27;20093;-68
2023/06/07 02:09:33;;;;;;;14.93;9.10;;;16.30;1.00;;;;;;5135274;27;20027;-68
2023/06/07 02:12:02;;;;;;;14.98;9.43;;;16.30;1.00;;;;;;5135371;27;20032;-68
2023/06/07 02:14:28;;;;;;;19.98;10.48;;;16.20;1.00;;;;;;5135163;27;20077;-68
2023/06/07 02:16:54;;;;;;;20.63;10.57;;;16.10;1.00;;;;;;5134792;27;20019;-68
2023/06/07 02:19:19;;;;;;;19.33;10.70;;;16.00;1.00;;;;;;5134953;27;20068;-68
2023/06/07 02:21:45;;;;;;;23.02;10.60;;;15.80;1.00;;;;;;5135109;27;20023;-68
2023/06/07 02:24:10;;;;;;;21.27;10.57;;;15.80;14.50;;;;;;5135166;27;20027;-67
2023/06/07 02:26:36;;;;;;;16.38;11.13;;;15.80;42.90;;;;;;5134939;27;20023;-68
2023/06/07 02:29:03;;;;;;;16.75;12.20;;;15.70;95.30;;;;;;5134836;27;20102;-68
2023/06/07 02:31:28;;;;;;;18.77;12.25;;;15.60;99.90;;;;;;5134868;27;20156;-68
2023/06/07 02:33:54;;;;;;;17.10;11.95;;;15.50;99.90;;;;;;5134691;27;20490;-67
2023/06/07 02:36:21;;;;;;;20.95;12.20;;;15.40;99.90;;;;;;5134510;27;20042;-67
2023/06/07 02:38:47;;;;;;;22.83;12.95;;;15.30;99.90;;;;;;5134294;27;20472;-67
2023/06/07 02:41:13;;;;;;;22.95;12.05;;;15.30;99.90;;;;;;5134884;27;20038;-68
2023/06/07 02:43:38;;;;;;;19.67;12.68;;;15.20;99.90;;;;;;5134576;27;20023;-68
2023/06/07 02:46:04;;;;;;;18.95;12.10;;;15.10;99.90;;;;;;5134654;27;20049;-67
2023/06/07 02:48:30;;;;;;;19.25;12.82;;;15.10;99.90;;;;;;5134581;27;20027;-67
2023/06/07 02:50:55;;;;;;;23.13;13.00;;;15.10;99.90;;;;;;5134472;27;20050;-67
2023/06/07 02:53:20;;;;;;;24.92;13.18;;;15.10;99.90;;;;;;5134446;27;20023;-68
2023/06/07 02:55:46;;;;;;;21.58;13.20;;;15.00;99.90;;;;;;5134423;27;20026;-67
2023/06/07 02:58:13;;;;;;;20.95;12.02;;;15.00;99.90;;;;;;5134514;27;20031;-67
2023/06/07 03:00:39;;;;;;;18.27;11.60;;;15.00;99.90;;;;;;5134560;27;20027;-67
2023/06/07 03:03:05;;;;;;;18.98;11.93;;;15.00;99.90;;;;;;5134341;27;20030;-67
2023/06/07 03:05:31;;;;;;;20.48;12.45;;;15.00;99.90;;;;;;5134426;27;20027;-67
2023/06/07 03:07:59;;;;;;;20.75;11.88;;;15.00;99.90;;;;;;5134019;27;20046;-68
2023/06/07 03:10:26;;;;;;;18.75;12.82;;;14.90;99.90;;;;;;5134256;28;20038;-67
2023/06/07 03:12:51;;;;;;;20.70;12.32;;;14.90;99.90;;;;;;5134297;28;20031;-68
2023/06/07 03:15:17;;;;;;;18.52;12.57;;;14.90;99.90;;;;;;5134306;28;20035;-67
2023/06/07 03:17:43;;;;;;;21.08;12.27;;;14.80;99.90;;;;;;5134204;28;20031;-67
2023/06/07 03:20:09;;;;;;;23.42;11.80;;;14.80;99.90;;;;;;5134257;28;20023;-68
2023/06/07 03:22:36;;;;;;;15.93;11.18;;;14.80;99.90;;;;;;5133928;28;20019;-68
2023/06/07 03:25:02;;;;;;;21.20;11.35;;;14.80;99.90;;;;;;5134269;28;20543;-67
2023/06/07 03:27:29;;;;;;;20.10;10.77;;;14.70;97.40;;;;;;5133977;28;20027;-67
2023/06/07 03:29:54;;;;;;;16.80;10.77;;;14.70;96.10;;;;;;5133887;28;20023;-68
2023/06/07 03:32:20;;;;;;;17.30;10.48;;;14.70;95.60;;;;;;5134111;28;20027;-68
2023/06/07 03:34:46;;;;;;;15.13;10.70;;;14.70;91.70;;;;;;5133914;28;20113;-68
2023/06/07 03:37:11;;;;;;;14.63;10.55;;;14.60;72.20;;;;;;5133865;28;20030;-68
2023/06/07 03:39:37;;;;;;;15.63;10.35;;;14.60;81.90;;;;;;5134226;28;20039;-68
2023/06/07 03:42:02;;;;;;;16.85;10.98;;;14.60;74.00;;;;;;5133992;28;20046;-67
2023/06/07 03:44:28;;;;;;;19.13;10.23;;;14.60;80.90;;;;;;5134107;28;20088;-68
2023/06/07 03:46:53;;;;;;;15.98;10.18;;;14.60;76.80;;;;;;5133999;28;20038;-68
2023/06/07 03:49:19;;;;;;;15.38;9.30;;;14.60;74.30;;;;;;5134236;27;20023;-67
2023/06/07 03:51:44;;;;;;;18.30;10.20;;;14.60;72.30;;;;;;5137887;27;20046;-68
2023/06/07 03:54:10;;;;;;;17.10;11.32;;;14.50;94.20;;;;;;5137963;27;20028;-68
2023/06/07 03:56:36;;;;;;;17.80;11.30;;;14.40;99.90;;;;;;5137553;27;20155;-67
2023/06/07 03:59:01;;;;;;;15.90;10.82;;;14.40;99.90;;;;;;5137829;27;20064;-68
2023/06/07 04:01:27;;;;;;;14.68;10.80;;;14.30;99.90;;;;;;5137852;27;20029;-68
2023/06/07 04:03:53;;;;;;;18.02;10.45;;;14.30;99.90;;;;;;5137389;27;20503;-67
2023/06/07 04:06:24;;;;;;;15.38;10.48;;;14.30;99.90;;;;;;5137406;27;20031;-68
2023/06/07 04:08:51;;;;;;;18.50;11.95;;;14.30;99.90;;;;;;5137475;27;20031;-67
2023/06/07 04:11:18;;;;;;;17.85;10.95;;;14.30;99.90;;;;;;5137427;27;20027;-67
2023/06/07 04:13:44;;;;;;;15.80;11.20;;;14.40;99.90;;;;;;5137634;27;20033;-67
2023/06/07 04:16:10;;;;;;;16.75;11.23;;;14.30;99.90;;;;;;5137256;27;20061;-68
2023/06/07 04:18:36;;;;;;;17.10;10.80;;;14.30;99.90;;;;;;5137467;27;20027;-68
2023/06/07 04:21:01;;;;;;;17.95;11.38;;;14.30;99.90;;;;;;5137153;27;20027;-67
2023/06/07 04:23:27;;;;;;;18.45;11.27;;;14.40;99.90;;;;;;5137226;27;20059;-67
2023/06/07 04:25:54;;;;;;;18.73;11.55;;;14.40;99.90;;;;;;5137198;27;20019;-67
2023/06/07 04:28:23;;;;;;;15.75;11.18;;;14.40;99.90;;;;;;5137038;27;20034;-67
2023/06/07 04:30:51;;;;;;;17.38;10.65;;;14.30;99.90;;;;;;5137339;27;20034;-68
2023/06/07 04:33:19;;;;;;;20.60;12.45;;;14.20;99.90;;;;;;5137163;27;20019;-68
2023/06/07 04:35:45;;;;;;;19.17;12.40;;;14.20;99.90;;;;;;5137215;27;20030;-67
2023/06/07 04:38:15;;;;;;;17.70;11.52;;;14.30;99.90;;;;;;5137246;27;20403;-67
2023/06/07 04:40:42;;;;;;;20.13;12.07;;;14.30;99.90;;;;;;5137224;27;20035;-67
2023/06/07 04:43:08;;;;;;;16.58;10.93;;;14.30;99.90;;;;;;5136960;27;20095;-67
2023/06/07 04:45:40;;;;;;;20.40;11.60;;;14.30;99.90;;;;;;5136814;27;20027;-68
2023/06/07 04:48:07;;;;;;;17.70;11.93;;;14.30;99.90;;;;;;5136829;27;20031;-69
2023/06/07 04:50:34;;;;;;;18.95;12.57;;;14.30;99.90;;;;;;5136960;27;20126;-68
2023/06/07 04:53:02;;;;;;;21.45;12.27;;;14.40;99.90;;;;;;5136943;27;20515;-68
2023/06/07 04:55:30;;;;;;;17.30;12.32;;;14.40;99.90;;;;;;5136913;27;20018;-68
2023/06/07 04:57:56;;;;;;;18.65;11.73;;;14.40;99.90;;;;;;5136574;27;20084;-67
2023/06/07 05:00:22;;;;;;;20.25;12.10;;;14.40;99.90;;;;;;5136010;27;20023;-67
2023/06/07 05:02:48;;;;;;;19.05;12.30;;;14.40;99.90;;;;;;5136750;27;20031;-67
2023/06/07 05:05:14;;;;;;;16.85;11.77;;;14.30;99.90;;;;;;5136294;27;20543;-67
2023/06/07 05:07:41;;;;;;;19.80;12.38;;;14.30;99.90;;;;;;5136220;27;20039;-67
2023/06/07 05:10:07;;;;;;;20.95;12.77;;;14.30;99.90;;;;;;5136632;27;20054;-67
2023/06/07 05:12:33;;;;;;;20.92;13.25;;;14.20;99.90;;;;;;5136661;27;20536;-67
2023/06/07 05:14:58;;;;;;;22.98;12.77;;;14.20;99.90;;;;;;5136261;27;20028;-67
2023/06/07 05:17:28;;;;;;;19.17;13.07;;;14.20;99.90;;;;;;5136215;27;20023;-67
2023/06/07 05:19:53;;;;;;;19.75;12.48;;;14.30;99.90;;;;;;5136164;27;20116;-67
2023/06/07 05:22:19;;;;;;;26.52;14.13;;;14.30;99.90;;;;;;5136151;27;20027;-67
2023/06/07 05:24:45;;;;;;;22.13;12.70;;;14.20;99.90;;;;;;5135935;27;20043;-67
2023/06/07 05:27:11;;;;;;;19.45;12.82;;;14.10;99.90;;;;;;5136319;27;20114;-67
2023/06/07 05:29:36;;;;;;;19.08;12.02;;;14.10;99.90;;;;;;5136249;27;20471;-67
2023/06/07 05:32:02;;;;;;;21.85;12.57;;;14.10;99.90;;;;;;5135972;27;20109;-67
2023/06/07 05:34:27;;;;;;;21.60;13.15;;;14.20;99.90;;;;;;5135748;27;20019;-67
2023/06/07 05:36:54;;;;;;;18.70;12.55;;;14.20;99.90;;;;;;5135995;27;20031;-67
2023/06/07 05:39:20;;;;;;;21.20;12.63;;;14.20;99.90;;;;;;5135743;27;20020;-68
2023/06/07 05:41:45;;;;;;;24.80;13.57;;;14.10;99.90;;;;;;5135760;27;20032;-67
2023/06/07 05:44:11;;;;;;;22.65;13.25;;;14.20;99.90;;;;;;5135840;27;20152;-67
2023/06/07 05:46:37;;;;;;;27.02;13.15;;;14.20;99.90;;;;;;5135787;27;20034;-67
2023/06/07 05:49:03;;;;;;;20.35;12.80;;;14.20;99.90;;;;;;5135442;27;20440;-68
2023/06/07 05:51:28;;;;;;;20.45;14.13;;;14.20;99.90;;;;;;5135604;27;20020;-67
2023/06/07 05:53:54;;;;;;;24.25;14.02;;;14.20;99.90;;;;;;5135356;27;20354;-67
2023/06/07 05:56:21;;;;;;;22.15;13.57;;;14.20;99.90;;;;;;5135369;27;20027;-67
2023/06/07 05:58:49;;;;;;;20.60;13.90;;;14.30;99.90;;;;;;5135491;27;20027;-68
2023/06/07 06:01:16;;;;;;;26.38;14.55;;;14.40;99.90;;;;;;5134758;27;20477;-67
2023/06/07 06:03:41;;;;;;;20.40;13.20;;;14.40;99.90;;;;;;5135288;27;20027;-67
2023/06/07 06:06:16;;;;;;;22.38;13.80;;;14.30;99.90;;;;;;5135374;27;20365;-67
2023/06/07 06:08:42;;;;;;;25.33;15.27;;;14.30;99.90;;;;;;5134947;27;20123;-67
2023/06/07 06:11:11;;;;;;;27.02;14.77;;;14.30;99.90;;;;;;5116750;27;20019;-67
2023/06/07 06:13:37;;;;;;;26.17;14.77;;;14.30;99.90;;;;;;5134444;27;20019;-67
2023/06/07 06:16:02;;;;;;;25.52;15.80;;;14.20;99.90;;;;;;5133978;27;20032;-67
2023/06/07 06:18:28;;;;;;;25.33;15.70;;;14.20;99.90;;;;;;5134726;27;20079;-67
2023/06/07 06:20:54;;;;;;;23.13;14.43;;;14.20;99.90;;;;;;5134583;27;20484;-67
2023/06/07 06:23:19;;;;;;;26.02;15.50;;;14.20;99.90;;;;;;5134952;27;20016;-67
2023/06/07 06:25:46;;;;;;;21.17;14.90;;;14.20;99.90;;;;;;5134609;27;20019;-68
2023/06/07 06:28:12;;;;;;;28.33;15.48;;;14.30;99.90;;;;;;5126700;27;20102;-67
2023/06/07 06:30:37;;;;;;;26.30;16.10;;;14.30;99.90;;;;;;5123986;27;20107;-67
2023/06/07 06:33:03;;;;;;;23.60;15.05;;;14.30;99.90;;;;;;5132668;27;20023;-67
2023/06/07 06:35:32;;;;;;;24.85;15.73;;;14.40;99.90;;;;;;5133350;27;20080;-67
2023/06/07 06:37:58;;;;;;;25.52;16.38;;;14.40;99.90;;;;;;5128948;27;20030;-68
2023/06/07 06:40:24;;;;;;;28.48;15.43;;;14.40;99.90;;;;;;5128943;27;20030;-67
2023/06/07 06:42:49;;;;;;;24.70;15.27;;;14.40;99.90;;;;;;5133124;27;20024;-66
2023/06/07 06:45:15;;;;;;;26.58;15.65;;;14.40;99.90;;;;;;5128436;27;20110;-65
2023/06/07 06:47:41;;;;;;;27.98;16.55;;;14.50;99.90;;;;;;5124129;27;20050;-66
2023/06/07 06:50:09;;;;;;;24.30;15.45;;;14.60;99.90;;;;;;5134330;27;20028;-66
2023/06/07 06:52:35;;;;;;;29.95;16.42;;;14.60;99.90;;;;;;5132839;27;20468;-66
2023/06/07 06:55:00;;;;;;;26.52;16.95;;;14.60;99.90;;;;;;5121604;27;20028;-65
2023/06/07 06:57:26;;;;;;;29.95;16.83;;;14.60;99.90;;;;;;5127874;27;20043;-65
2023/06/07 06:59:51;;;;;;;28.05;16.20;;;14.70;99.90;;;;;;5129084;27;20028;-66
2023/06/07 07:02:17;;;;;;;27.50;16.33;;;14.80;99.90;;;;;;5129110;27;20028;-66
2023/06/07 07:04:43;;;;;;;27.60;16.95;;;14.80;99.90;;;;;;5136161;27;20523;-66
2023/06/07 07:07:09;;;;;;;23.08;16.20;;;14.90;99.90;;;;;;5129682;27;20452;-66
2023/06/07 07:09:35;;;;;;;25.40;16.70;;;14.90;99.90;;;;;;5117183;27;20109;-66
2023/06/07 07:12:00;;;;;;;35.35;17.50;;;14.80;99.90;;;;;;5131584;27;20046;-66
2023/06/07 07:14:26;;;;;;;28.63;16.80;;;14.90;99.90;;;;;;5131338;27;20031;-66
2023/06/07 07:16:53;;;;;;;29.75;16.92;;;14.90;99.90;;;;;;5132369;28;20030;-66
2023/06/07 07:19:18;;;;;;;23.27;16.33;;;14.90;99.90;;;;;;5133860;28;20034;-66
2023/06/07 07:21:44;;;;;;;29.30;16.98;;;15.00;99.90;;;;;;5124237;28;20405;-67
2023/06/07 07:24:09;;;;;;;29.50;17.30;;;14.90;99.90;;;;;;5130651;27;20019;-67
2023/06/07 07:26:35;;;;;;;25.00;16.63;;;15.10;99.90;;;;;;5122142;27;20035;-66
2023/06/07 07:29:01;;;;;;;21.15;15.80;;;15.20;99.90;;;;;;5126352;27;20027;-67
2023/06/07 07:31:30;;;;;;;28.42;15.55;;;15.30;99.90;;;;;;5134881;27;20035;-67
2023/06/07 07:33:56;;;;;;;23.85;16.48;;;15.40;99.90;;;;;;5137002;27;20027;-67
2023/06/07 07:36:22;;;;;;;28.48;16.42;;;15.50;99.90;;;;;;5136816;27;20441;-67
2023/06/07 07:38:48;;;;;;;29.00;15.93;;;15.50;99.90;;;;;;5137730;27;20058;-66
2023/06/07 07:41:14;;;;;;;26.80;15.50;;;15.70;99.90;;;;;;5137652;27;20059;-67
2023/06/07 07:43:40;;;;;;;24.77;14.88;;;15.90;99.90;;;;;;5138089;27;20456;-67
2023/06/07 07:46:06;;;;;;;22.77;15.75;;;16.10;99.70;;;;;;5135060;27;20084;-67
2023/06/07 07:48:31;;;;;;;26.75;17.35;;;16.40;91.70;;;;;;5133841;27;20376;-67
2023/06/07 07:50:57;;;;;;;23.17;16.35;;;16.30;76.40;;;;;;5145676;27;20027;-67
2023/06/07 07:53:23;;;;;;;34.83;18.23;;;16.40;70.50;;;;;;5117001;28;20028;-67
2023/06/07 07:55:48;;;;;;;29.05;18.23;;;16.60;62.00;;;;;;5112805;27;20035;-67
2023/06/07 07:58:14;;;;;;;27.92;19.70;;;16.90;44.20;;;;;;5137334;27;20102;-67
2023/06/07 08:00:40;;;;;;;30.67;18.48;;;17.20;15.20;;;;;;5137806;27;20031;-67
2023/06/07 08:03:06;;;;;;;28.25;17.05;;;17.50;1.00;;;;;;5137662;27;20110;-67
2023/06/07 08:05:31;;;;;;;28.20;17.25;;;17.70;1.00;;;;;;5137647;27;20158;-67
2023/06/07 08:07:57;;;;;;;27.00;16.52;;;17.60;1.00;;;;;;5115437;27;20165;-67
2023/06/07 08:10:24;;;;;;;23.88;16.08;;;17.80;1.00;;;;;;5116968;28;20027;-67
2023/06/07 08:12:49;;;;;;;28.02;18.35;;;18.10;1.00;;;;;;5116744;28;20022;-67
2023/06/07 08:15:15;;;;;;;29.08;18.08;;;17.70;1.00;;;;;;5116579;28;20107;-68
2023/06/07 08:17:41;;;;;;;22.10;17.05;;;17.80;1.00;;;;;;5116895;28;20551;-67
2023/06/07 08:20:08;;;;;;;25.65;17.17;;;18.30;1.00;;;;;;5116900;28;20032;-67
2023/06/07 08:22:35;;;;;;;23.95;16.33;;;18.20;1.00;;;;;;5116643;28;20110;-67
2023/06/07 08:25:00;;;;;;;26.33;16.20;;;18.30;1.00;;;;;;5115414;28;20031;-67
2023/06/07 08:27:26;;;;;;;27.23;16.95;;;18.50;1.00;;;;;;5116439;28;20108;-66
2023/06/07 08:29:52;;;;;;;22.95;17.10;;;18.50;1.00;;;;;;5116527;28;20383;-66
2023/06/07 08:32:17;;;;;;;28.02;19.23;;;18.40;1.00;;;;;;5116545;28;20031;-66
2023/06/07 08:34:44;;;;;;;26.17;17.85;;;18.80;1.00;;;;;;5116215;28;20033;-67
2023/06/07 08:37:09;;;;;;;25.92;19.38;;;19.30;1.00;;;;;;5106169;27;20058;-67
2023/06/07 08:39:35;;;;;;;23.33;17.00;;;20.30;1.00;;;;;;5118302;27;20426;-68
2023/06/07 08:42:01;;;;;;;24.00;16.83;;;21.10;99.90;;;;;;5096808;27;20251;-67
2023/06/07 08:44:26;;;;;;;22.48;17.23;;;21.50;1.00;;;;;;5094056;27;20040;-68
2023/06/07 08:46:53;;;;;;;24.23;16.17;;;21.80;99.90;;;;;;5096128;27;20039;-67
2023/06/07 08:49:22;;;;;;;23.52;15.82;;;21.50;1.00;;;;;;5127343;27;20020;-68
2023/06/07 08:51:49;;;;;;;18.77;15.07;;;21.70;99.90;;;;;;5136859;27;20069;-68
2023/06/07 08:54:20;;;;;;;22.00;15.65;;;22.20;99.90;;;;;;5117247;27;20024;-66
2023/06/07 08:56:47;;;;;;;23.20;15.43;;;21.80;59.80;;;;;;5115937;28;20016;-66
2023/06/07 08:59:13;;;;;;;19.75;15.98;;;21.10;96.20;;;;;;5114862;28;20048;-67
2023/06/07 09:01:39;;;;;;;21.70;16.38;;;20.30;1.00;;;;;;5115903;28;20036;-67
2023/06/07 09:04:06;;;;;;;24.58;18.00;;;20.20;1.00;;;;;;5115898;28;20028;-67
2023/06/07 09:06:34;;;;;;;22.98;18.77;;;19.80;1.00;;;;;;5116968;27;20051;-67
2023/06/07 09:09:00;;;;;;;28.88;19.77;;;19.20;99.90;;;;;;5136095;27;20031;-66
2023/06/07 09:11:26;;;;;;;24.60;18.50;;;19.40;99.90;;;;;;5136259;27;20069;-66
2023/06/07 09:13:55;;;;;;;25.35;18.25;;;19.40;99.90;;;;;;5117329;27;20045;-67
2023/06/07 09:16:21;;;;;;;24.48;18.35;;;19.00;99.90;;;;;;5109784;27;20024;-66
2023/06/07 09:18:56;;;;;;;23.90;17.77;;;18.80;99.90;;;;;;5095925;28;20123;-66
2023/06/07 09:21:23;;;;;;;27.23;18.45;;;18.80;1.00;;;;;;5114557;27;20071;-66
2023/06/07 09:23:53;;;;;;;31.10;18.63;;;19.10;1.00;;;;;;5092847;28;20626;-66
2023/06/07 09:26:22;;;;;;;25.35;17.73;;;19.00;99.90;;;;;;5094337;27;20442;-67
2023/06/07 09:28:48;;;;;;;29.92;19.05;;;19.20;99.90;;;;;;5101215;27;20019;-66
2023/06/07 09:31:29;;;;;;;24.83;19.20;;;19.20;99.90;;;;;;5115018;27;20032;-67
2023/06/07 09:33:54;;;;;;;28.90;19.08;;;19.10;1.00;;;;;;5103819;28;20119;-66
2023/06/07 09:36:20;;;;;;;28.13;20.25;;;19.00;99.90;;;;;;5103891;27;20094;-66
2023/06/07 09:38:46;;;;;;;27.70;19.50;;;19.00;1.00;;;;;;5110885;27;20032;-67
2023/06/07 09:41:12;;;;;;;27.60;21.15;;;19.20;99.90;;;;;;5111155;27;20028;-66
2023/06/07 09:43:50;;;;;;;27.92;20.92;;;19.00;1.00;;;;;;5111884;27;20712;-67
2023/06/07 09:46:18;;;;;;;27.85;20.08;;;18.90;1.00;;;;;;5101183;28;20110;-67
2023/06/07 09:48:49;;;;;;;32.30;19.13;;;19.00;1.00;;;;;;5111007;28;20031;-68
2023/06/07 09:51:15;;;;;;;24.02;18.75;;;19.20;99.90;;;;;;5110700;27;20458;-67
2023/06/07 09:54:00;;;;;;;28.73;18.92;;;19.60;99.90;;;;;;5088468;28;20106;-67
2023/06/07 09:56:26;;;;;;;31.75;19.83;;;19.40;99.90;;;;;;5113302;27;20143;-67
2023/06/07 09:59:09;;;;;;;32.65;21.23;;;19.50;99.90;;;;;;5115282;27;20031;-68
2023/06/07 10:01:38;;;;;;;26.77;20.25;;;19.70;99.90;;;;;;5111784;27;20031;-68
2023/06/07 10:04:05;;;;;;;30.88;21.00;;;19.70;99.90;;;;;;5101825;27;20032;-67
2023/06/07 10:06:32;;;;;;;29.75;20.95;;;19.80;99.90;;;;;;5112948;27;20461;-68
2023/06/07 10:09:02;;;;;;;25.77;20.20;;;20.30;99.90;;;;;;5113756;27;20473;-68
2023/06/07 10:11:32;;;;;;;31.02;20.05;;;20.50;42.30;;;;;;5114485;27;20462;-68
2023/06/07 10:14:04;;;;;;;25.48;19.92;;;20.70;1.00;;;;;;5112347;28;20081;-68
2023/06/07 10:16:34;;;;;;;29.08;19.17;;;20.60;99.90;;;;;;5117319;27;20083;-68
2023/06/07 10:19:07;;;;;;;26.48;19.27;;;20.70;99.90;;;;;;5111786;27;20524;-68
2023/06/07 10:21:34;;;;;;;23.30;18.85;;;20.70;1.00;;;;;;5115151;27;20024;-68
2023/06/07 10:24:05;;;;;;;28.73;19.27;;;20.80;99.90;;;;;;5107061;28;20031;-68
2023/06/07 10:26:55;;;;;;;27.05;19.60;;;20.80;99.90;;;;;;5110058;27;20032;-68
2023/06/07 10:29:59;;;;;;;26.05;20.27;;;21.10;99.90;;;;;;5105207;28;20066;-68
2023/06/07 10:32:29;;;;;;;26.38;19.10;;;21.10;99.90;;;;;;5116001;27;20039;-68
2023/06/07 10:34:55;;;;;;;25.02;18.73;;;22.20;1.00;;;;;;5097445;27;20035;-68
2023/06/07 10:37:21;;;;;;;24.73;18.70;;;23.60;1.00;;;;;;5112602;28;20485;-69
2023/06/07 10:39:46;;;;;;;25.02;19.02;;;22.60;99.90;;;;;;5116123;27;20168;-68
2023/06/07 10:42:13;;;;;;;25.90;18.70;;;22.50;99.90;;;;;;5096295;27;20039;-68
2023/06/07 10:44:39;;;;;;;26.95;18.30;;;22.50;99.90;;;;;;5108373;27;20039;-68
2023/06/07 10:47:26;;;;;;;26.00;18.70;;;22.20;99.90;;;;;;5113851;27;20050;-68
2023/06/07 10:49:52;;;;;;;27.60;18.63;;;22.00;99.90;;;;;;5111933;28;20122;-68
2023/06/07 10:52:18;;;;;;;26.25;17.90;;;22.60;99.90;;;;;;5101905;27;20063;-68
2023/06/07 10:54:44;;;;;;;22.25;18.08;;;22.60;29.70;;;;;;5093969;27;20115;-68
2023/06/07 10:57:10;;;;;;;25.73;19.88;;;22.80;99.90;;;;;;5110561;28;20032;-68
2023/06/07 10:59:37;;;;;;;26.05;20.42;;;22.50;16.00;;;;;;5113395;27;20392;-68
2023/06/07 11:02:21;;;;;;;26.02;19.05;;;22.60;99.90;;;;;;5111589;28;20469;-68
2023/06/07 11:04:52;;;;;;;26.00;19.92;;;22.70;87.30;;;;;;5088915;28;20031;-68
2023/06/07 11:07:20;;;;;;;24.90;19.33;;;22.00;99.90;;;;;;5109512;27;20047;-68
2023/06/07 11:09:49;;;;;;;25.13;19.42;;;22.30;99.90;;;;;;5104014;28;20148;-68
2023/06/07 11:15:22;;;;;;;23.90;19.23;;;22.70;99.90;;;;;;5088751;28;20323;-69
2023/06/07 11:17:53;;;;;;;26.33;19.63;;;22.90;1.00;;;;;;5082616;28;20067;-68
2023/06/07 11:23:35;;;;;;;24.83;18.48;;;23.20;1.00;;;;;;5106553;27;20393;-68
2023/06/07 11:26:10;;;;;;;28.38;19.02;;;23.10;99.90;;;;;;5089877;28;20446;-69
2023/06/07 11:28:38;;;;;;;23.63;19.40;;;22.90;99.90;;;;;;5090615;28;20032;-67
2023/06/07 11:31:08;;;;;;;26.67;18.73;;;22.70;25.20;;;;;;5085719;28;20031;-67
2023/06/07 11:33:34;;;;;;;22.20;17.35;;;23.40;1.00;;;;;;5087461;28;20035;-67
2023/06/07 11:36:01;;;;;;;22.40;18.52;;;24.20;1.00;;;;;;5070021;28;20509;-66
2023/06/07 11:38:27;;;;;;;20.15;17.35;;;24.60;99.90;;;;;;5070224;28;20390;-67
2023/06/07 11:40:53;;;;;;;25.00;17.65;;;24.30;1.00;;;;;;5068614;28;20020;-67
2023/06/07 11:43:22;;;;;;;25.40;18.83;;;24.90;1.00;;;;;;5059567;28;20038;-67
2023/06/07 11:45:49;;;;;;;22.20;17.15;;;24.10;1.00;;;;;;5066500;28;20014;-67
2023/06/07 11:48:15;;;;;;;19.67;16.15;;;24.90;14.80;;;;;;5064320;28;20101;-67
2023/06/07 11:50:43;;;;;;;25.40;18.02;;;25.30;1.00;;;;;;5062374;28;20482;-67
2023/06/07 11:53:10;;;;;;;22.10;18.40;;;25.40;99.90;;;;;;5060714;28;20048;-67
2023/06/07 11:55:36;;;;;;;21.20;18.13;;;24.90;99.90;;;;;;5070004;28;20031;-67
2023/06/07 11:58:02;;;;;;;21.65;18.25;;;24.30;99.90;;;;;;5069763;28;20025;-67
2023/06/07 12:00:31;;;;;;;23.60;17.88;;;24.30;99.90;;;;;;5068569;28;20031;-66
2023/06/07 12:02:59;;;;;;;22.88;18.67;;;24.10;99.90;;;;;;5069921;28;20025;-67
2023/06/07 12:05:30;;;;;;;22.35;17.77;;;23.90;99.90;;;;;;5063471;28;20474;-67
2023/06/07 12:08:13;;;;;;;19.77;16.77;;;24.10;1.00;;;;;;5068454;28;20016;-67
2023/06/07 12:10:39;;;;;;;19.00;16.80;;;24.30;99.90;;;;;;5066454;28;20025;-67
2023/06/07 12:13:21;;;;;;;22.42;17.63;;;24.20;1.00;;;;;;5066960;28;20044;-67
2023/06/07 12:15:55;;;;;;;20.55;16.20;;;24.10;1.00;;;;;;5069405;28;20474;-67
2023/06/07 12:18:29;;;;;;;21.58;17.92;;;24.20;1.00;;;;;;5067903;28;20119;-67
2023/06/07 12:21:11;;;;;;;22.77;18.02;;;24.40;1.00;;;;;;5069011;28;20024;-67
2023/06/07 12:23:44;;;;;;;23.05;16.90;;;24.20;1.00;;;;;;5066155;28;20141;-67
2023/06/07 12:26:14;;;;;;;23.00;18.52;;;24.10;1.00;;;;;;5068148;28;20041;-67
2023/06/07 12:28:42;;;;;;;24.23;17.63;;;24.10;13.10;;;;;;5067475;28;20032;-67
2023/06/07 12:31:24;;;;;;;18.83;15.95;;;24.10;1.00;;;;;;5069294;28;20029;-67
2023/06/07 12:33:57;;;;;;;19.58;16.10;;;24.50;1.00;;;;;;5060080;28;20497;-67
2023/06/07 12:36:24;;;;;;;21.88;16.90;;;24.90;1.00;;;;;;5055787;28;20540;-67
2023/06/07 12:38:49;;;;;;;18.92;15.90;;;25.00;99.90;;;;;;5054087;28;20159;-68